Airports



Current ATIS/METAR

CYWG 300400Z 28011KT 15SM FEW060 BKN150 10/06 A2964 RMK SC2AC5 SLP044

  • Tower/Terminal at Winnipeg International (CYWG) is open 24/7.
  • Tower St. Andrews (CYAV) is open daily from 1300Z - 0400Z.

  • Current ATIS/METAR

    CYPG 292200Z 35005KT 15SM FEW060 BKN082 BKN250 18/02 A2965 RMK SC2AC4CI1 LAST OBS/NEXT 301100 UTC SLP043

  • Tower open Mon - Fri from 1400Z - 2300Z, excluding holidays.

  • Current ATIS/METAR

    CYXE 300400Z 30010KT 15SM SKC 07/M05 A3002 RMK SLP181

  • Tower open Mon - Fri between March 9th - October 31st, from 1200Z - 0445Z.
  • Tower open Sat - Sun between March 9th - October 31st, from 1245Z - 0445Z.
  • Tower open between November 1st - March 8th, from 1245Z - 0445Z.

  • Current ATIS/METAR

    CYQT 300422Z 30004KT 7SM SCT037 BKN055 OVC170 07/07 A2950 RMK SC3SC3AC2 SLP997

  • Tower open daily from 1200Z - 0400Z.

  • Current ATIS/METAR

    CYQR 300400Z 31012KT 15SM SKC 09/M02 A2997 RMK SLP163

  • Tower open between April 1st - October 31st, from 1200Z - 0400Z.
  • Tower open between November 1st - March 31st, from 1200Z - 0500Z.

  • Current ATIS/METAR

    CYMJ 292233Z 30023G31KT 15SM FEW045 FEW100 FEW300 15/01 A2990 RMK CU1AC2CI1 LAST OBS/NEXT 301000 UTC SLP131

  • Tower/Terminal open between February 16st - October 31st, from 1400Z - 0030Z.
  • Tower/Terminal open between November 1st - Februaty 15th, from 1430Z - 0100Z.
  • Tower/Terminal also frequenty closed on weekends.